Weather at St Louis Lambert International Airport

Public forecast

Using degrees Fahrenheit for public forecast. Weather courtesy of forecast.io.

Current aviation weather report (METAR) for St Louis Lambert International Airport

Retrieved 2020/10/22 03:35 UTC (0 seconds ago):

KSTL 220335Z 13006KT 5SM BR FEW005 BKN075 14/13 A3009 RMK AO2 T01440128

Aviation forecast (TAF) for St Louis Lambert International Airport

Retrieved 2020-10-22 00:39 UTC (3 hours ago):

TAF KSTL 212337Z 2200/2306 11005KT 5SM BR OVC008 FM220800 14004KT 5SM BR SCT035 FM221500 18010G17KT P6SM FEW040